Time;durP1;ratioP1;P1;durP2;ratioP2;P2;SDS_P1;SDS_P2;PMS_P1;PMS_P2;Temp;Humidity;BMP_temperature;BMP_pressure;BME280_temperature;BME280_humidity;BME280_pressure;Samples;Min_cycle;Max_cycle;Signal;HPM_P1;HPM_P2
2023/07/22 00:02:22;;;;;;;2.77;0.97;;;16.90;99.90;;;;;;5125909;27;20469;-80
2023/07/22 00:04:49;;;;;;;2.17;1.30;;;17.00;99.90;;;;;;5118812;27;20581;-78
2023/07/22 00:07:16;;;;;;;2.63;1.37;;;17.00;99.90;;;;;;5123558;27;20551;-80
2023/07/22 00:09:44;;;;;;;0.97;0.80;;;17.10;99.90;;;;;;5120802;27;20458;-78
2023/07/22 00:12:12;;;;;;;1.43;1.30;;;17.10;99.90;;;;;;5121568;27;20595;-80
2023/07/22 00:14:42;;;;;;;1.87;0.80;;;17.10;99.90;;;;;;5117096;27;20452;-78
2023/07/22 00:17:09;;;;;;;2.23;1.33;;;17.10;99.90;;;;;;5121029;27;20577;-80
2023/07/22 00:19:36;;;;;;;1.13;0.80;;;17.10;99.90;;;;;;5125159;27;20499;-80
2023/07/22 00:22:04;;;;;;;1.60;0.97;;;17.10;99.90;;;;;;5124985;27;20479;-78
2023/07/22 00:24:31;;;;;;;1.23;0.97;;;17.10;99.90;;;;;;5125063;27;20434;-77
2023/07/22 00:26:58;;;;;;;5.43;0.80;;;17.10;99.90;;;;;;5117489;27;20560;-77
2023/07/22 00:29:25;;;;;;;1.50;0.80;;;17.10;99.90;;;;;;5121289;27;20548;-78
2023/07/22 00:31:53;;;;;;;1.60;1.20;;;17.10;99.90;;;;;;5118825;27;20471;-81
2023/07/22 00:34:20;;;;;;;1.80;1.00;;;17.20;99.90;;;;;;5114904;27;20487;-78
2023/07/22 00:36:47;;;;;;;3.70;2.17;;;17.20;99.90;;;;;;5122196;27;20450;-77
2023/07/22 00:39:14;;;;;;;2.57;1.17;;;17.20;99.90;;;;;;5115196;27;20455;-76
2023/07/22 00:41:44;;;;;;;1.27;0.90;;;17.20;99.90;;;;;;5126428;27;20439;-77
2023/07/22 00:44:11;;;;;;;2.10;0.97;;;17.30;99.90;;;;;;5125460;27;20458;-80
2023/07/22 00:46:38;;;;;;;1.83;1.00;;;17.30;99.90;;;;;;5122403;27;20514;-80
2023/07/22 00:49:08;;;;;;;1.60;1.00;;;17.20;99.90;;;;;;5122950;27;20591;-79
2023/07/22 00:51:35;;;;;;;10.37;1.30;;;17.30;99.90;;;;;;5119540;27;20450;-79
2023/07/22 00:54:03;;;;;;;0.97;0.83;;;17.30;99.90;;;;;;5126473;27;20491;-79
2023/07/22 00:56:33;;;;;;;2.63;0.70;;;17.30;99.90;;;;;;5120401;27;20791;-77
2023/07/22 00:59:00;;;;;;;1.23;1.13;;;17.30;99.90;;;;;;5115891;27;20486;-77
2023/07/22 01:01:27;;;;;;;1.53;1.43;;;17.30;99.90;;;;;;5109471;27;20538;-78
2023/07/22 01:03:54;;;;;;;1.13;0.90;;;17.30;99.90;;;;;;5115144;27;20496;-78
2023/07/22 01:06:24;;;;;;;2.20;1.00;;;17.30;99.90;;;;;;5124629;27;20446;-79
2023/07/22 01:08:52;;;;;;;1.20;1.10;;;17.30;99.90;;;;;;5122854;27;20544;-78
2023/07/22 01:11:18;;;;;;;0.90;0.70;;;17.30;99.90;;;;;;5119216;27;20525;-78
2023/07/22 01:13:45;;;;;;;1.80;1.50;;;17.30;99.90;;;;;;5115546;27;21132;-79
2023/07/22 01:16:13;;;;;;;7.03;1.10;;;17.30;99.90;;;;;;5117972;27;20540;-79
2023/07/22 01:18:40;;;;;;;1.20;1.10;;;17.30;99.90;;;;;;5121177;27;20464;-80
2023/07/22 01:21:08;;;;;;;1.00;0.90;;;17.20;99.90;;;;;;5119203;27;20798;-79
2023/07/22 01:23:36;;;;;;;2.93;0.80;;;17.30;99.90;;;;;;5120606;28;20471;-77
2023/07/22 01:26:04;;;;;;;4.30;0.90;;;17.30;99.90;;;;;;5117801;28;20488;-79
2023/07/22 01:28:31;;;;;;;1.70;0.80;;;17.30;99.90;;;;;;5114302;27;21006;-77
2023/07/22 01:30:58;;;;;;;2.20;1.10;;;17.20;99.90;;;;;;5121409;28;20492;-76
2023/07/22 01:33:26;;;;;;;1.17;0.80;;;17.20;99.90;;;;;;5116104;28;20477;-77
2023/07/22 01:35:53;;;;;;;1.33;1.10;;;17.20;99.90;;;;;;5118813;27;20452;-78
2023/07/22 01:38:20;;;;;;;1.97;1.10;;;17.20;99.90;;;;;;5115552;28;21016;-78
2023/07/22 01:40:48;;;;;;;1.57;1.00;;;17.20;99.90;;;;;;5122277;28;20484;-81
2023/07/22 01:43:15;;;;;;;1.47;1.00;;;17.10;99.90;;;;;;5118020;27;20476;-79
2023/07/22 01:45:42;;;;;;;1.20;1.10;;;17.20;99.90;;;;;;5128092;27;20476;-80
2023/07/22 01:48:09;;;;;;;2.60;0.83;;;17.20;99.90;;;;;;5121514;27;20483;-79
2023/07/22 01:50:36;;;;;;;1.40;0.97;;;17.20;99.90;;;;;;5125918;27;20520;-80
2023/07/22 01:53:05;;;;;;;0.90;0.90;;;17.10;99.90;;;;;;5125985;27;20545;-79
2023/07/22 01:55:32;;;;;;;1.10;0.80;;;17.10;99.90;;;;;;5126328;27;20871;-79
2023/07/22 01:58:01;;;;;;;1.20;1.03;;;17.10;99.90;;;;;;5128612;27;20434;-78
2023/07/22 02:00:28;;;;;;;1.30;0.70;;;17.10;99.90;;;;;;5127455;27;20540;-78
2023/07/22 02:02:55;;;;;;;3.90;0.90;;;17.10;99.90;;;;;;5129239;27;20478;-79
2023/07/22 02:05:22;;;;;;;1.77;0.80;;;17.10;99.90;;;;;;5128979;27;20462;-78
2023/07/22 02:07:49;;;;;;;1.07;0.80;;;17.00;99.90;;;;;;5129227;27;21026;-78
2023/07/22 02:10:16;;;;;;;0.80;0.80;;;17.00;99.90;;;;;;5125299;27;20451;-77
2023/07/22 02:12:43;;;;;;;1.57;0.90;;;17.00;99.90;;;;;;5123817;27;20478;-77
2023/07/22 02:15:12;;;;;;;2.27;0.90;;;16.90;99.90;;;;;;5129365;27;20461;-79
2023/07/22 02:17:38;;;;;;;4.77;1.00;;;16.80;99.90;;;;;;5120518;27;21190;-79
2023/07/22 02:20:08;;;;;;;1.20;0.90;;;16.80;99.90;;;;;;5123040;27;20477;-77
2023/07/22 02:22:35;;;;;;;1.23;0.90;;;16.70;99.90;;;;;;5128801;27;20446;-80
2023/07/22 02:25:03;;;;;;;1.27;1.07;;;16.60;99.90;;;;;;5123302;27;20459;-80
2023/07/22 02:27:30;;;;;;;1.13;0.90;;;16.60;99.90;;;;;;5125616;27;20526;-78
2023/07/22 02:29:57;;;;;;;0.60;0.60;;;16.60;99.90;;;;;;5124425;27;21138;-81
2023/07/22 02:32:25;;;;;;;1.33;0.90;;;16.60;99.90;;;;;;5128642;27;20526;-80
2023/07/22 02:34:52;;;;;;;1.43;0.70;;;16.60;99.90;;;;;;5122670;27;20493;-79
2023/07/22 02:37:19;;;;;;;1.33;0.70;;;16.60;99.90;;;;;;5130580;27;20533;-77
2023/07/22 02:39:46;;;;;;;1.67;0.90;;;16.60;99.90;;;;;;5128605;27;20982;-80
2023/07/22 02:42:12;;;;;;;3.10;1.10;;;16.60;99.90;;;;;;5122744;27;20483;-78
2023/07/22 02:44:39;;;;;;;2.63;1.20;;;16.60;99.90;;;;;;5122969;27;20589;-79
2023/07/22 02:47:06;;;;;;;2.40;1.00;;;16.60;99.90;;;;;;5123400;27;21002;-80
2023/07/22 02:49:35;;;;;;;1.63;0.93;;;16.60;99.90;;;;;;5125313;27;20513;-78
2023/07/22 02:52:02;;;;;;;1.47;0.90;;;16.60;99.90;;;;;;5127458;27;21214;-80
2023/07/22 02:54:29;;;;;;;2.20;1.03;;;16.60;99.90;;;;;;5123608;27;20460;-77
2023/07/22 02:56:56;;;;;;;1.47;0.80;;;16.60;99.90;;;;;;5127313;27;20510;-77
2023/07/22 02:59:24;;;;;;;2.20;0.93;;;16.60;99.90;;;;;;5129000;27;20474;-80
2023/07/22 03:01:51;;;;;;;12.20;0.87;;;16.60;99.90;;;;;;5126219;27;21049;-77
2023/07/22 03:04:19;;;;;;;1.00;0.70;;;16.60;99.90;;;;;;5128223;27;20485;-77
2023/07/22 03:06:47;;;;;;;1.60;1.50;;;16.60;99.90;;;;;;5125066;27;20524;-76
2023/07/22 03:09:14;;;;;;;1.47;1.17;;;16.60;99.90;;;;;;5122607;27;20537;-79
2023/07/22 03:11:41;;;;;;;3.33;0.93;;;16.60;99.90;;;;;;5125425;27;20936;-77
2023/07/22 03:14:08;;;;;;;2.13;0.70;;;16.60;99.90;;;;;;5124618;27;20489;-78
2023/07/22 03:16:35;;;;;;;1.40;0.50;;;16.60;99.90;;;;;;5123382;27;20540;-78
2023/07/22 03:19:02;;;;;;;6.00;0.90;;;16.60;99.90;;;;;;5122823;27;20508;-77
2023/07/22 03:21:29;;;;;;;1.40;1.07;;;16.60;99.90;;;;;;5127298;27;20443;-78
2023/07/22 03:23:57;;;;;;;2.27;0.90;;;16.50;99.90;;;;;;5124453;27;20466;-77
2023/07/22 03:26:24;;;;;;;1.70;1.27;;;16.50;99.90;;;;;;5125747;27;20771;-80
2023/07/22 03:28:51;;;;;;;1.20;0.70;;;16.50;99.90;;;;;;5127964;27;20587;-79
2023/07/22 03:31:18;;;;;;;3.20;0.80;;;16.50;99.90;;;;;;5126157;27;20546;-78
2023/07/22 03:33:46;;;;;;;7.03;0.93;;;16.40;99.90;;;;;;5144743;27;20445;-77
2023/07/22 03:36:13;;;;;;;3.03;1.07;;;16.40;99.90;;;;;;5129559;27;20500;-77
2023/07/22 03:38:40;;;;;;;3.43;1.37;;;16.40;99.90;;;;;;5123697;27;20458;-77
2023/07/22 03:41:08;;;;;;;2.10;1.07;;;16.30;99.90;;;;;;5122118;27;20457;-78
2023/07/22 03:43:35;;;;;;;1.10;1.00;;;16.30;99.90;;;;;;5117662;27;20521;-79
2023/07/22 03:46:02;;;;;;;2.10;0.90;;;16.30;99.90;;;;;;5123457;27;20445;-77
2023/07/22 03:48:29;;;;;;;1.00;0.90;;;16.30;99.90;;;;;;5119094;27;20512;-79
2023/07/22 03:50:56;;;;;;;1.20;1.10;;;16.20;99.90;;;;;;5126151;27;20481;-76
2023/07/22 03:53:23;;;;;;;1.33;0.90;;;16.20;99.90;;;;;;5124234;27;20500;-78
2023/07/22 03:55:50;;;;;;;1.80;0.90;;;16.20;99.90;;;;;;5124157;27;20601;-77
2023/07/22 03:58:18;;;;;;;0.93;0.70;;;16.20;99.90;;;;;;5126441;27;20474;-79
2023/07/22 04:00:49;;;;;;;1.00;0.70;;;16.20;99.90;;;;;;5123286;27;20508;-78
2023/07/22 04:03:16;;;;;;;1.90;0.80;;;16.10;99.90;;;;;;5119328;27;20483;-77
2023/07/22 04:05:43;;;;;;;1.07;0.90;;;16.10;99.90;;;;;;5125369;27;20628;-78
2023/07/22 04:08:10;;;;;;;1.77;0.80;;;16.10;99.90;;;;;;5120774;27;21141;-78
2023/07/22 04:10:37;;;;;;;1.10;1.00;;;16.10;99.90;;;;;;5122711;27;20442;-77
2023/07/22 04:13:04;;;;;;;2.30;0.97;;;16.10;99.90;;;;;;5123014;27;20505;-79
2023/07/22 04:15:33;;;;;;;1.57;0.70;;;16.10;99.90;;;;;;5120535;27;20526;-79
2023/07/22 04:17:59;;;;;;;1.00;0.80;;;16.20;99.90;;;;;;5123484;27;20543;-81
2023/07/22 04:20:26;;;;;;;1.20;0.90;;;16.20;99.90;;;;;;5125519;27;20489;-77
2023/07/22 04:22:53;;;;;;;1.00;0.90;;;16.20;99.90;;;;;;5126316;27;20495;-79
2023/07/22 04:25:21;;;;;;;1.13;1.03;;;16.20;99.90;;;;;;5119295;27;20845;-77
2023/07/22 04:27:48;;;;;;;2.10;0.80;;;16.20;99.90;;;;;;5120757;27;20992;-79
2023/07/22 04:30:20;;;;;;;2.03;0.80;;;16.20;99.90;;;;;;5126829;27;20520;-78
2023/07/22 04:32:49;;;;;;;1.00;0.80;;;16.30;99.90;;;;;;5123516;27;20477;-78
2023/07/22 04:35:17;;;;;;;1.07;0.77;;;16.30;99.90;;;;;;5120494;27;20454;-78
2023/07/22 04:37:44;;;;;;;1.83;0.80;;;16.40;99.90;;;;;;5117505;27;20519;-83
2023/07/22 04:40:14;;;;;;;2.17;1.67;;;16.50;99.90;;;;;;5118875;27;20480;-81
2023/07/22 04:42:41;;;;;;;0.63;0.63;;;16.60;99.90;;;;;;5121472;27;20946;-81
2023/07/22 04:45:10;;;;;;;3.27;0.80;;;16.70;99.90;;;;;;5117380;27;20465;-80
2023/07/22 04:47:38;;;;;;;1.97;1.13;;;16.70;99.90;;;;;;5118105;27;21046;-80
2023/07/22 04:50:09;;;;;;;4.47;2.17;;;16.70;99.90;;;;;;5119991;27;20576;-79
2023/07/22 04:52:36;;;;;;;1.33;1.03;;;16.60;99.90;;;;;;5123581;27;20494;-81
2023/07/22 04:55:08;;;;;;;2.03;1.30;;;16.60;99.90;;;;;;5125689;27;20558;-81
2023/07/22 04:57:35;;;;;;;2.60;1.47;;;16.60;99.90;;;;;;5140380;27;20433;-79
2023/07/22 05:00:04;;;;;;;3.43;1.20;;;16.60;99.90;;;;;;5144123;27;20492;-78
2023/07/22 05:02:31;;;;;;;4.27;2.00;;;16.60;99.90;;;;;;5140741;27;20490;-80
2023/07/22 05:04:58;;;;;;;5.87;2.10;;;16.60;99.90;;;;;;5129795;27;20826;-79
2023/07/22 05:07:26;;;;;;;1.03;0.73;;;16.60;99.90;;;;;;5122176;27;20509;-78
2023/07/22 05:09:53;;;;;;;1.00;0.80;;;16.80;99.90;;;;;;5126763;27;21103;-81
2023/07/22 05:12:20;;;;;;;0.93;0.80;;;16.90;99.90;;;;;;5126249;27;20558;-79
2023/07/22 05:14:47;;;;;;;1.37;0.90;;;17.00;99.90;;;;;;5127050;27;20485;-81
2023/07/22 05:17:14;;;;;;;6.53;5.63;;;17.00;99.90;;;;;;5127152;27;20526;-79
2023/07/22 05:19:41;;;;;;;5.30;3.03;;;16.80;99.90;;;;;;5127823;27;20476;-81
2023/07/22 05:22:08;;;;;;;9.10;3.93;;;16.70;99.90;;;;;;5124770;27;20546;-81
2023/07/22 05:24:36;;;;;;;6.13;2.20;;;16.70;99.90;;;;;;5127507;28;20469;-80
2023/07/22 05:27:03;;;;;;;1.33;0.93;;;16.90;99.90;;;;;;5125462;28;20477;-79
2023/07/22 05:29:30;;;;;;;8.10;5.03;;;17.10;99.90;;;;;;5124100;28;20520;-80
2023/07/22 05:31:57;;;;;;;7.57;4.33;;;17.20;99.90;;;;;;5118421;27;20907;-78
2023/07/22 05:34:24;;;;;;;5.90;3.43;;;17.20;99.90;;;;;;5119247;28;20466;-79
2023/07/22 05:36:51;;;;;;;7.10;4.30;;;17.40;99.90;;;;;;5121521;28;20499;-79
2023/07/22 05:39:18;;;;;;;7.03;3.07;;;17.50;99.90;;;;;;5123922;27;21074;-81
2023/07/22 05:41:46;;;;;;;13.77;7.97;;;17.40;99.90;;;;;;5119761;28;20518;-79
2023/07/22 05:44:13;;;;;;;11.70;8.93;;;17.50;99.90;;;;;;5122106;27;20481;-81
2023/07/22 05:46:40;;;;;;;12.87;7.20;;;17.60;99.90;;;;;;5121283;28;20481;-80
2023/07/22 05:49:07;;;;;;;19.40;12.70;;;17.70;99.90;;;;;;5115354;28;20485;-82
2023/07/22 05:51:34;;;;;;;6.00;4.90;;;17.80;99.90;;;;;;5117813;27;20474;-80
2023/07/22 05:54:01;;;;;;;7.40;5.40;;;17.90;99.90;;;;;;5119245;28;20468;-80
2023/07/22 05:56:28;;;;;;;10.50;7.70;;;17.80;99.90;;;;;;5124746;28;20561;-79
2023/07/22 05:58:56;;;;;;;7.23;4.77;;;17.90;99.90;;;;;;5123116;28;20527;-79
2023/07/22 06:01:24;;;;;;;10.07;1.53;;;18.00;99.90;;;;;;5119586;27;20440;-81
2023/07/22 06:03:51;;;;;;;4.50;2.67;;;18.10;99.90;;;;;;5119978;28;20473;-81
2023/07/22 06:06:18;;;;;;;8.13;3.53;;;18.20;99.90;;;;;;5117785;28;20544;-79
2023/07/22 06:08:45;;;;;;;11.80;6.07;;;18.10;99.90;;;;;;5121027;28;21014;-80
2023/07/22 06:11:12;;;;;;;28.07;15.40;;;17.90;99.90;;;;;;5122937;28;20508;-79
2023/07/22 06:13:39;;;;;;;11.80;6.50;;;18.00;99.90;;;;;;5126201;28;20904;-80
2023/07/22 06:16:07;;;;;;;6.87;3.47;;;18.30;99.90;;;;;;5122202;27;20488;-81
2023/07/22 06:18:34;;;;;;;3.17;2.70;;;18.40;99.90;;;;;;5123168;27;20536;-81
2023/07/22 06:21:01;;;;;;;1.67;1.30;;;18.70;99.90;;;;;;5127208;28;20501;-81
2023/07/22 06:23:28;;;;;;;1.43;1.10;;;18.70;99.90;;;;;;5136227;27;20460;-80
2023/07/22 06:25:55;;;;;;;1.20;0.70;;;18.80;99.90;;;;;;5149847;28;20437;-80
2023/07/22 06:28:22;;;;;;;3.83;1.20;;;18.90;99.90;;;;;;5122733;28;20521;-79
2023/07/22 06:30:49;;;;;;;2.50;1.20;;;19.10;99.90;;;;;;5121783;27;20551;-81
2023/07/22 06:33:17;;;;;;;1.70;1.23;;;19.20;99.90;;;;;;5128711;27;20488;-80
2023/07/22 06:35:44;;;;;;;5.93;2.73;;;19.00;99.90;;;;;;5124318;27;20532;-78
2023/07/22 06:38:11;;;;;;;2.50;1.27;;;19.30;99.90;;;;;;5122614;27;20532;-81
2023/07/22 06:40:38;;;;;;;2.30;1.03;;;19.50;99.90;;;;;;5126226;27;20532;-79
2023/07/22 06:43:05;;;;;;;1.47;1.10;;;19.50;99.90;;;;;;5128647;27;20461;-79
2023/07/22 06:45:32;;;;;;;1.93;1.67;;;19.50;99.90;;;;;;5124314;27;20479;-81
2023/07/22 06:47:59;;;;;;;15.23;2.40;;;19.60;99.90;;;;;;5122182;27;20497;-80
2023/07/22 06:50:28;;;;;;;1.33;0.93;;;19.80;99.90;;;;;;5130288;27;20513;-80
2023/07/22 06:52:55;;;;;;;1.03;0.77;;;20.00;99.90;;;;;;5126003;27;20454;-78
2023/07/22 06:55:22;;;;;;;1.00;0.83;;;20.00;99.90;;;;;;5118199;27;20466;-79
2023/07/22 06:57:49;;;;;;;2.73;1.10;;;20.10;99.90;;;;;;5128792;27;20477;-80
2023/07/22 07:00:16;;;;;;;1.03;0.80;;;20.10;99.90;;;;;;5124939;27;20496;-80
2023/07/22 07:02:43;;;;;;;1.97;0.80;;;20.30;99.90;;;;;;5127159;27;20537;-83
2023/07/22 07:05:11;;;;;;;1.20;1.10;;;20.50;99.90;;;;;;5118575;27;20457;-78
2023/07/22 07:07:40;;;;;;;0.70;0.70;;;20.80;99.90;;;;;;5125127;27;20935;-79
2023/07/22 07:10:08;;;;;;;1.23;0.80;;;20.90;99.90;;;;;;5121622;27;20509;-81
2023/07/22 07:12:35;;;;;;;2.30;1.73;;;21.10;99.90;;;;;;5118617;27;20493;-80
2023/07/22 07:15:03;;;;;;;0.93;0.70;;;21.10;99.90;;;;;;5123683;27;20476;-78
2023/07/22 07:17:30;;;;;;;3.33;1.03;;;21.20;99.90;;;;;;5119365;27;20465;-81
2023/07/22 07:19:57;;;;;;;1.80;0.80;;;21.40;99.80;;;;;;5121762;27;20442;-79
2023/07/22 07:22:24;;;;;;;0.97;0.87;;;21.30;99.20;;;;;;5127110;27;20488;-80
2023/07/22 07:24:52;;;;;;;0.73;0.67;;;21.30;97.90;;;;;;5117138;27;20553;-81
2023/07/22 07:27:19;;;;;;;1.20;0.70;;;21.30;98.90;;;;;;5118735;27;20473;-78
2023/07/22 07:29:46;;;;;;;2.27;0.90;;;21.20;98.50;;;;;;5125576;27;20521;-79
2023/07/22 07:32:12;;;;;;;1.20;0.70;;;21.70;99.30;;;;;;5122357;27;20544;-84
2023/07/22 07:34:39;;;;;;;1.47;1.10;;;21.90;98.70;;;;;;5124357;27;20454;-80
2023/07/22 07:37:07;;;;;;;1.40;1.30;;;21.90;97.40;;;;;;5124639;27;20485;-82
2023/07/22 07:39:33;;;;;;;0.90;0.80;;;21.70;97.50;;;;;;5121838;27;20530;-79
2023/07/22 07:42:02;;;;;;;1.53;1.00;;;21.70;99.30;;;;;;5124287;27;20482;-79
2023/07/22 07:44:29;;;;;;;0.90;0.80;;;21.50;97.00;;;;;;5117786;27;20944;-82
2023/07/22 07:46:56;;;;;;;1.97;0.83;;;21.60;98.40;;;;;;5109311;27;21634;-79
2023/07/22 07:49:23;;;;;;;0.80;0.60;;;21.30;97.90;;;;;;5129002;27;20502;-82
2023/07/22 07:51:50;;;;;;;1.60;1.13;;;21.40;98.10;;;;;;5146453;27;20455;-80
2023/07/22 07:54:17;;;;;;;2.70;0.97;;;21.60;97.20;;;;;;5130843;27;20446;-79
2023/07/22 07:56:43;;;;;;;1.13;1.10;;;21.60;97.10;;;;;;5119172;28;20887;-79
2023/07/22 07:59:12;;;;;;;0.83;0.80;;;22.00;96.00;;;;;;5119049;27;20544;-80
2023/07/22 08:01:41;;;;;;;1.10;1.10;;;21.90;96.60;;;;;;5122637;27;20481;-79
2023/07/22 08:04:08;;;;;;;1.40;0.80;;;21.90;97.50;;;;;;5128297;27;20485;-78
2023/07/22 08:06:37;;;;;;;1.97;1.47;;;22.30;94.40;;;;;;5120331;27;20539;-79
2023/07/22 08:09:05;;;;;;;1.10;0.73;;;22.10;95.90;;;;;;5124166;27;20507;-78
2023/07/22 08:11:32;;;;;;;1.27;1.00;;;22.00;97.10;;;;;;5126624;27;20489;-78
2023/07/22 08:13:59;;;;;;;1.37;0.70;;;22.20;95.50;;;;;;5114684;27;20541;-80
2023/07/22 08:16:27;;;;;;;1.57;1.03;;;22.50;95.60;;;;;;5120382;27;21184;-78
2023/07/22 08:18:54;;;;;;;1.57;0.80;;;22.40;93.40;;;;;;5116016;27;20554;-78
2023/07/22 08:21:21;;;;;;;4.83;0.90;;;22.10;94.30;;;;;;5124554;27;20480;-80
2023/07/22 08:23:48;;;;;;;1.73;0.90;;;22.10;94.70;;;;;;5118700;27;20979;-79
2023/07/22 08:26:17;;;;;;;1.47;0.90;;;22.10;94.10;;;;;;5116109;27;20572;-78
2023/07/22 08:28:44;;;;;;;1.37;0.70;;;22.40;94.20;;;;;;5116787;27;20926;-79
2023/07/22 08:31:11;;;;;;;2.17;0.70;;;22.20;93.90;;;;;;5122757;27;20572;-80
2023/07/22 08:33:40;;;;;;;2.13;0.63;;;22.20;93.60;;;;;;5122569;27;20546;-78
2023/07/22 08:36:06;;;;;;;0.90;0.60;;;22.10;92.70;;;;;;5121369;27;20474;-80
2023/07/22 08:38:33;;;;;;;1.77;1.27;;;22.20;92.30;;;;;;5115781;27;20520;-79
2023/07/22 08:41:01;;;;;;;1.40;0.63;;;22.50;94.00;;;;;;5114822;27;20947;-79
2023/07/22 08:43:30;;;;;;;1.20;0.80;;;22.70;93.20;;;;;;5114006;27;20441;-79
2023/07/22 08:46:01;;;;;;;0.90;0.70;;;22.90;93.70;;;;;;5108106;27;20863;-78
2023/07/22 08:48:32;;;;;;;0.70;0.60;;;22.90;92.50;;;;;;5115196;27;20471;-81
2023/07/22 08:51:11;;;;;;;1.00;0.60;;;23.10;91.50;;;;;;5111144;27;20474;-80
2023/07/22 08:53:38;;;;;;;0.87;0.70;;;23.30;90.70;;;;;;5108485;27;20551;-78
2023/07/22 08:56:05;;;;;;;2.60;0.73;;;23.40;90.50;;;;;;5124812;27;20474;-79
2023/07/22 08:58:33;;;;;;;2.83;0.83;;;23.40;85.80;;;;;;5122641;27;20552;-78
2023/07/22 09:01:01;;;;;;;2.50;0.77;;;23.40;91.30;;;;;;5126462;27;20443;-79
2023/07/22 09:03:28;;;;;;;0.93;0.70;;;23.20;91.10;;;;;;5127497;27;20453;-78
2023/07/22 09:05:56;;;;;;;1.00;0.70;;;23.30;89.30;;;;;;5118411;27;20559;-81
2023/07/22 09:08:24;;;;;;;0.70;0.60;;;23.40;85.00;;;;;;5124331;27;20570;-78
2023/07/22 09:10:51;;;;;;;0.73;0.67;;;23.90;86.30;;;;;;5118790;27;20526;-80
2023/07/22 09:13:20;;;;;;;2.20;0.63;;;23.80;79.60;;;;;;5123487;27;20449;-78
2023/07/22 09:15:48;;;;;;;0.93;0.50;;;23.70;83.00;;;;;;5142121;27;20455;-79
2023/07/22 09:18:16;;;;;;;1.53;0.70;;;23.60;81.90;;;;;;5131291;27;20459;-78
2023/07/22 09:20:43;;;;;;;0.90;0.60;;;23.70;81.90;;;;;;5135459;27;20447;-78
2023/07/22 09:23:10;;;;;;;1.00;0.90;;;23.50;82.70;;;;;;5128374;27;20441;-79
2023/07/22 09:25:38;;;;;;;1.20;0.77;;;23.60;81.90;;;;;;5125795;28;20470;-80
2023/07/22 09:28:05;;;;;;;0.80;0.70;;;23.50;82.10;;;;;;5121873;27;20533;-77
2023/07/22 09:30:35;;;;;;;0.70;0.50;;;23.30;84.80;;;;;;5123933;28;20517;-79
2023/07/22 09:33:03;;;;;;;0.80;0.70;;;23.40;89.60;;;;;;5110950;28;20446;-78
2023/07/22 09:35:31;;;;;;;1.17;0.70;;;23.10;83.30;;;;;;5123713;27;20782;-79
2023/07/22 09:38:00;;;;;;;0.93;0.77;;;22.70;84.10;;;;;;5115941;28;20889;-81
2023/07/22 09:40:28;;;;;;;1.00;0.90;;;22.90;87.30;;;;;;5114417;27;20445;-82
2023/07/22 09:43:01;;;;;;;1.17;0.93;;;22.90;87.60;;;;;;5116110;27;20515;-81
2023/07/22 09:45:31;;;;;;;0.60;0.53;;;22.90;83.40;;;;;;5121074;28;20566;-81
2023/07/22 09:47:59;;;;;;;1.47;0.80;;;22.90;84.70;;;;;;5122253;27;20485;-81
2023/07/22 09:50:27;;;;;;;0.80;0.60;;;23.10;85.40;;;;;;5116536;27;20563;-81
2023/07/22 09:52:55;;;;;;;2.50;0.93;;;23.30;83.30;;;;;;5119277;28;20524;-81
2023/07/22 09:55:24;;;;;;;2.03;1.87;;;23.30;83.00;;;;;;5115342;28;20540;-80
2023/07/22 09:57:52;;;;;;;0.87;0.77;;;23.70;83.10;;;;;;5123435;28;21186;-82
2023/07/22 10:00:21;;;;;;;0.97;0.73;;;23.50;86.30;;;;;;5121009;28;20497;-82
2023/07/22 10:02:50;;;;;;;0.90;0.80;;;23.40;82.10;;;;;;5126248;28;20447;-79
2023/07/22 10:05:18;;;;;;;5.10;1.27;;;23.60;84.60;;;;;;5123276;27;21220;-79
2023/07/22 10:07:47;;;;;;;3.67;0.90;;;23.80;82.90;;;;;;5129444;27;20472;-80
2023/07/22 10:10:18;;;;;;;0.73;0.60;;;23.40;81.00;;;;;;5124237;27;20517;-80
2023/07/22 10:12:45;;;;;;;1.10;0.60;;;23.40;83.90;;;;;;5128736;27;20469;-80
2023/07/22 10:15:13;;;;;;;1.10;0.90;;;23.90;84.00;;;;;;5128405;27;20476;-80
2023/07/22 10:17:43;;;;;;;1.03;0.80;;;23.90;79.80;;;;;;5127681;27;20530;-80
2023/07/22 10:20:14;;;;;;;1.10;0.80;;;23.90;82.50;;;;;;5130717;27;20446;-80
2023/07/22 10:22:43;;;;;;;0.87;0.77;;;24.20;82.20;;;;;;5126219;27;20484;-80
2023/07/22 10:25:12;;;;;;;1.00;0.80;;;23.90;81.40;;;;;;5129132;27;20473;-79
2023/07/22 10:27:41;;;;;;;0.83;0.50;;;24.20;79.80;;;;;;5129844;27;20516;-79
2023/07/22 10:30:10;;;;;;;2.93;0.80;;;24.50;77.40;;;;;;5129967;27;20443;-79
2023/07/22 10:32:39;;;;;;;0.70;0.70;;;24.60;78.70;;;;;;5110857;27;20490;-82
2023/07/22 10:35:13;;;;;;;0.87;0.73;;;24.70;82.60;;;;;;5123093;27;20494;-81
2023/07/22 10:37:42;;;;;;;2.10;0.80;;;24.70;76.90;;;;;;5125484;27;20432;-80
2023/07/22 10:40:20;;;;;;;0.90;0.80;;;24.80;78.20;;;;;;5135300;27;20474;-79
2023/07/22 10:42:59;;;;;;;1.17;0.90;;;25.10;76.00;;;;;;5132300;27;20439;-78
2023/07/22 10:45:28;;;;;;;1.17;0.80;;;25.00;76.50;;;;;;5129019;27;20453;-77
2023/07/22 10:48:07;;;;;;;3.07;0.70;;;25.00;75.10;;;;;;5126442;27;20898;-78
2023/07/22 10:50:43;;;;;;;0.90;0.80;;;24.70;81.20;;;;;;5117335;27;20527;-79
2023/07/22 10:53:12;;;;;;;1.13;0.87;;;24.30;78.90;;;;;;5119010;27;20448;-82
2023/07/22 10:56:13;;;;;;;1.70;0.80;;;24.40;77.60;;;;;;5126594;27;20478;-81
2023/07/22 10:58:58;;;;;;;0.73;0.73;;;24.80;79.30;;;;;;5127278;27;20456;-80
2023/07/22 11:01:32;;;;;;;2.50;0.90;;;24.90;77.10;;;;;;5128911;27;20545;-80
2023/07/22 11:04:14;;;;;;;1.03;0.87;;;24.90;77.20;;;;;;5120446;27;20488;-82
2023/07/22 11:06:55;;;;;;;0.70;0.70;;;24.50;78.10;;;;;;5128189;27;20464;-81
2023/07/22 11:09:39;;;;;;;1.87;0.80;;;24.20;79.50;;;;;;5129199;27;20820;-83
2023/07/22 11:12:08;;;;;;;0.90;0.80;;;24.70;80.50;;;;;;5118771;27;20563;-80
2023/07/22 11:14:38;;;;;;;3.40;0.70;;;24.90;75.30;;;;;;5125469;27;20484;-79
2023/07/22 11:17:07;;;;;;;0.90;0.80;;;25.00;73.30;;;;;;5120218;27;20494;-80
2023/07/22 11:19:37;;;;;;;1.30;1.00;;;25.10;73.00;;;;;;5126663;27;20539;-80
2023/07/22 11:22:06;;;;;;;0.70;0.60;;;25.00;75.60;;;;;;5129256;27;20456;-82
2023/07/22 11:24:35;;;;;;;1.90;1.07;;;24.90;72.70;;;;;;5130168;27;20481;-80
2023/07/22 11:27:04;;;;;;;0.93;0.80;;;25.00;75.20;;;;;;5121738;27;20459;-79
2023/07/22 11:29:31;;;;;;;0.80;0.77;;;25.10;74.60;;;;;;5128319;27;21038;-82
2023/07/22 11:31:58;;;;;;;1.00;0.70;;;25.40;72.10;;;;;;5126661;27;20484;-80
2023/07/22 11:34:26;;;;;;;2.73;0.80;;;26.00;73.40;;;;;;5117908;27;20495;-82
2023/07/22 11:36:54;;;;;;;1.83;1.07;;;25.70;67.80;;;;;;5109877;27;20484;-80
2023/07/22 11:39:24;;;;;;;1.00;0.87;;;25.30;67.80;;;;;;5106747;27;20504;-83
2023/07/22 11:41:52;;;;;;;1.13;0.60;;;25.50;68.20;;;;;;5109252;27;20492;-80
2023/07/22 11:44:21;;;;;;;2.13;1.33;;;25.80;71.70;;;;;;5126074;27;20479;-82
2023/07/22 11:46:57;;;;;;;1.30;0.90;;;25.50;71.70;;;;;;5108797;27;21027;-82
2023/07/22 11:49:29;;;;;;;0.80;0.80;;;25.70;76.30;;;;;;5110891;27;20461;-82
2023/07/22 11:52:01;;;;;;;1.93;0.60;;;25.70;69.60;;;;;;5116932;27;20521;-81
2023/07/22 11:54:30;;;;;;;0.70;0.60;;;25.40;71.40;;;;;;5107849;27;20553;-81
2023/07/22 11:56:57;;;;;;;1.77;1.47;;;26.10;72.20;;;;;;5112210;27;20476;-79
2023/07/22 11:59:35;;;;;;;2.63;1.20;;;26.20;68.00;;;;;;5114758;27;20523;-81
2023/07/22 12:02:02;;;;;;;0.97;0.70;;;25.90;66.50;;;;;;5119497;27;20464;-82
2023/07/22 12:04:29;;;;;;;1.63;0.90;;;25.90;70.50;;;;;;5123603;27;21882;-79
2023/07/22 12:06:56;;;;;;;2.73;0.90;;;25.60;68.30;;;;;;5125346;27;20473;-80
2023/07/22 12:09:24;;;;;;;1.77;0.80;;;25.60;71.00;;;;;;5135794;27;22069;-81
2023/07/22 12:12:00;;;;;;;1.07;0.97;;;25.20;69.00;;;;;;5110324;27;21090;-79
2023/07/22 12:14:35;;;;;;;1.73;0.87;;;25.00;69.00;;;;;;5117133;27;20525;-80
2023/07/22 12:17:03;;;;;;;0.97;0.80;;;25.20;70.80;;;;;;5110853;27;20468;-81
2023/07/22 12:19:30;;;;;;;1.33;0.83;;;25.30;71.20;;;;;;5116903;27;20473;-81
2023/07/22 12:21:57;;;;;;;1.10;0.90;;;25.80;69.50;;;;;;5123261;27;20473;-81
2023/07/22 12:24:24;;;;;;;1.00;0.80;;;25.70;66.80;;;;;;5112677;27;20504;-79
2023/07/22 12:26:51;;;;;;;0.80;0.80;;;25.80;70.50;;;;;;5109503;27;21024;-82
2023/07/22 12:29:19;;;;;;;0.77;0.70;;;26.00;68.60;;;;;;5123012;27;20509;-80
2023/07/22 12:31:46;;;;;;;2.07;0.87;;;25.60;67.40;;;;;;5109853;27;20520;-81
2023/07/22 12:34:13;;;;;;;1.90;1.13;;;26.00;67.80;;;;;;5110884;27;20469;-82
2023/07/22 12:36:41;;;;;;;0.90;0.67;;;25.30;67.50;;;;;;5110673;27;20981;-79
2023/07/22 12:39:08;;;;;;;1.33;0.70;;;25.20;67.70;;;;;;5106371;27;20489;-83
2023/07/22 12:41:34;;;;;;;1.63;1.00;;;25.40;67.80;;;;;;5115451;27;21116;-82
2023/07/22 12:44:01;;;;;;;1.10;0.83;;;25.90;69.80;;;;;;5114447;27;20497;-81
2023/07/22 12:46:30;;;;;;;0.90;0.73;;;25.90;67.20;;;;;;5114624;27;20443;-81
2023/07/22 12:48:57;;;;;;;2.13;1.07;;;25.90;65.80;;;;;;5119514;27;20462;-79
2023/07/22 12:51:24;;;;;;;0.93;0.90;;;26.20;69.80;;;;;;5119325;27;20516;-80